Time;durP1;ratioP1;P1;durP2;ratioP2;P2;SDS_P1;SDS_P2;PMS_P1;PMS_P2;Temp;Humidity;BMP_temperature;BMP_pressure;BME280_temperature;BME280_humidity;BME280_pressure;Samples;Min_cycle;Max_cycle;Signal;HPM_P1;HPM_P2
2023/08/16 00:00:23;;;;;;;7.35;3.40;;;21.50;1.00;;;;;;5051435;28;20438;-70
2023/08/16 00:02:49;;;;;;;8.15;3.80;;;21.50;1.00;;;;;;5050483;28;20758;-70
2023/08/16 00:05:14;;;;;;;7.75;3.70;;;21.50;1.00;;;;;;5050569;28;20389;-70
2023/08/16 00:07:40;;;;;;;8.48;3.60;;;21.40;1.00;;;;;;5048076;28;20444;-71
2023/08/16 00:10:14;;;;;;;8.73;3.78;;;21.30;1.00;;;;;;5047684;28;20402;-71
2023/08/16 00:12:40;;;;;;;8.32;4.00;;;21.10;1.00;;;;;;5048592;28;20385;-71
2023/08/16 00:15:07;;;;;;;9.57;3.87;;;21.00;28.20;;;;;;5049104;28;20499;-71
2023/08/16 00:17:33;;;;;;;8.43;4.20;;;21.00;52.30;;;;;;5048979;28;20381;-70
2023/08/16 00:19:59;;;;;;;7.70;3.30;;;20.90;64.30;;;;;;5048410;28;20431;-71
2023/08/16 00:22:24;;;;;;;9.83;3.67;;;20.90;82.00;;;;;;5049300;28;20397;-71
2023/08/16 00:24:49;;;;;;;7.33;3.20;;;21.00;80.10;;;;;;5048927;28;20898;-71
2023/08/16 00:27:17;;;;;;;7.28;3.40;;;21.00;98.70;;;;;;5048058;28;22400;-71
2023/08/16 00:29:46;;;;;;;7.77;3.40;;;21.00;90.80;;;;;;5048687;28;20493;-70
2023/08/16 00:32:11;;;;;;;8.38;3.90;;;21.10;43.20;;;;;;5049018;28;20455;-71
2023/08/16 00:34:37;;;;;;;7.32;3.60;;;21.20;46.80;;;;;;5047243;28;20378;-71
2023/08/16 00:37:02;;;;;;;7.20;3.20;;;21.30;19.90;;;;;;5048716;28;20402;-71
2023/08/16 00:39:29;;;;;;;7.72;3.00;;;21.30;1.00;;;;;;5049064;28;20777;-71
2023/08/16 00:41:55;;;;;;;7.00;3.22;;;21.20;1.00;;;;;;5049242;28;20846;-71
2023/08/16 00:44:20;;;;;;;9.60;3.80;;;21.20;2.70;;;;;;5049102;28;20484;-73
2023/08/16 00:46:46;;;;;;;8.43;3.53;;;21.20;10.70;;;;;;5048717;28;20421;-73
2023/08/16 00:49:11;;;;;;;8.60;3.63;;;21.20;39.00;;;;;;5049341;28;20447;-73
2023/08/16 00:51:37;;;;;;;7.53;3.27;;;21.30;39.50;;;;;;5049774;28;20818;-72
2023/08/16 00:54:04;;;;;;;7.60;3.85;;;21.40;1.00;;;;;;5050661;28;20420;-72
2023/08/16 00:56:29;;;;;;;8.88;3.75;;;21.30;1.00;;;;;;5049451;28;20974;-72
2023/08/16 00:58:56;;;;;;;7.25;3.70;;;21.30;1.00;;;;;;5050030;28;20504;-72
2023/08/16 01:01:22;;;;;;;7.30;3.67;;;21.20;2.90;;;;;;5049480;28;20389;-73
2023/08/16 01:03:48;;;;;;;10.02;3.92;;;21.10;45.70;;;;;;5049473;28;20397;-73
2023/08/16 01:06:13;;;;;;;7.05;3.40;;;21.10;47.20;;;;;;5049192;28;20767;-73
2023/08/16 01:08:39;;;;;;;7.80;3.60;;;21.20;35.90;;;;;;5049182;28;20469;-73
2023/08/16 01:11:33;;;;;;;10.10;3.90;;;21.20;1.90;;;;;;5048898;28;20881;-71
2023/08/16 01:14:09;;;;;;;9.38;4.13;;;21.00;23.20;;;;;;5048585;28;20382;-71
2023/08/16 01:16:38;;;;;;;8.50;4.07;;;21.10;28.40;;;;;;5048361;28;20393;-71
2023/08/16 01:19:13;;;;;;;7.32;3.42;;;21.20;9.40;;;;;;5049041;28;20404;-71
2023/08/16 01:21:53;;;;;;;8.20;3.83;;;21.20;1.00;;;;;;5048547;28;20396;-71
2023/08/16 01:24:30;;;;;;;7.18;3.28;;;20.90;9.00;;;;;;5048236;28;20468;-71
2023/08/16 01:26:56;;;;;;;10.60;4.30;;;20.90;2.60;;;;;;5048305;28;20421;-71
2023/08/16 01:29:23;;;;;;;8.70;3.78;;;20.90;39.70;;;;;;5049461;28;20755;-71
2023/08/16 01:31:49;;;;;;;8.73;3.90;;;20.90;46.30;;;;;;5052074;28;20397;-71
2023/08/16 01:34:14;;;;;;;8.32;3.60;;;20.90;29.40;;;;;;5050607;28;20734;-71
2023/08/16 01:36:40;;;;;;;7.30;3.20;;;20.90;18.20;;;;;;5052203;28;20688;-71
2023/08/16 01:39:06;;;;;;;7.88;3.90;;;20.90;31.80;;;;;;5051867;28;20401;-71
2023/08/16 01:41:41;;;;;;;10.23;4.25;;;20.80;41.30;;;;;;5052490;28;20730;-71
2023/08/16 01:44:08;;;;;;;8.45;3.88;;;20.70;87.30;;;;;;5051583;28;20402;-71
2023/08/16 01:46:35;;;;;;;8.20;3.63;;;20.60;99.90;;;;;;5052194;28;20424;-71
2023/08/16 01:49:01;;;;;;;8.73;3.97;;;20.50;99.90;;;;;;5050005;28;20386;-71
2023/08/16 01:51:27;;;;;;;8.25;3.85;;;20.50;99.90;;;;;;5051012;28;20886;-71
2023/08/16 01:53:53;;;;;;;8.10;3.75;;;20.60;99.90;;;;;;5051101;28;20389;-71
2023/08/16 01:56:19;;;;;;;9.00;4.10;;;20.60;98.30;;;;;;5051011;28;20957;-71
2023/08/16 01:58:46;;;;;;;7.83;3.30;;;20.50;99.90;;;;;;5051023;28;20404;-71
2023/08/16 02:01:12;;;;;;;8.80;4.10;;;20.60;99.90;;;;;;5050772;28;20788;-71
2023/08/16 02:03:37;;;;;;;9.60;4.05;;;20.70;99.90;;;;;;5050723;28;20905;-71
2023/08/16 02:06:03;;;;;;;9.40;4.50;;;20.90;95.50;;;;;;5051522;28;20600;-71
2023/08/16 02:08:28;;;;;;;9.85;4.40;;;20.90;26.40;;;;;;5050799;28;20476;-71
2023/08/16 02:10:54;;;;;;;8.93;4.10;;;20.90;19.70;;;;;;5051381;28;21226;-71
2023/08/16 02:13:19;;;;;;;9.93;3.80;;;20.80;35.30;;;;;;5050921;28;20400;-71
2023/08/16 02:15:45;;;;;;;9.90;4.37;;;20.60;56.70;;;;;;5050945;28;20398;-71
2023/08/16 02:18:10;;;;;;;10.10;4.30;;;20.60;96.60;;;;;;5050529;28;20404;-71
2023/08/16 02:20:40;;;;;;;9.40;4.40;;;20.50;99.90;;;;;;5050751;28;20394;-71
2023/08/16 02:23:07;;;;;;;9.60;4.60;;;20.40;99.90;;;;;;5050475;28;20439;-71
2023/08/16 02:25:32;;;;;;;11.02;4.38;;;20.40;99.90;;;;;;5051074;28;20447;-71
2023/08/16 02:27:58;;;;;;;12.13;4.03;;;20.40;99.90;;;;;;5050221;28;20377;-71
2023/08/16 02:30:24;;;;;;;7.60;3.90;;;20.40;99.90;;;;;;5050990;28;20895;-71
2023/08/16 02:32:50;;;;;;;9.13;4.30;;;20.40;99.90;;;;;;5050374;28;20433;-71
2023/08/16 02:35:15;;;;;;;9.65;4.32;;;20.40;99.90;;;;;;5049632;28;20459;-71
2023/08/16 02:37:42;;;;;;;9.68;4.63;;;20.30;99.90;;;;;;5049908;28;20446;-71
2023/08/16 02:40:08;;;;;;;9.32;4.75;;;20.20;99.90;;;;;;5050289;28;20397;-71
2023/08/16 02:42:34;;;;;;;10.73;4.75;;;20.20;99.90;;;;;;5050701;28;20468;-71
2023/08/16 02:44:59;;;;;;;10.23;4.78;;;20.30;99.90;;;;;;5050413;28;20477;-71
2023/08/16 02:47:25;;;;;;;12.37;4.63;;;20.40;99.90;;;;;;5050630;28;20515;-71
2023/08/16 02:49:50;;;;;;;9.30;4.60;;;20.40;99.90;;;;;;5050395;28;20885;-71
2023/08/16 02:52:16;;;;;;;10.70;5.23;;;20.40;99.90;;;;;;5050107;28;20397;-71
2023/08/16 02:54:42;;;;;;;9.47;4.50;;;20.30;95.40;;;;;;5049792;28;20389;-71
2023/08/16 02:57:07;;;;;;;10.50;5.20;;;20.20;99.90;;;;;;5049880;28;20377;-71
2023/08/16 02:59:40;;;;;;;9.48;4.30;;;20.10;99.90;;;;;;5050385;28;20746;-71
2023/08/16 03:02:07;;;;;;;10.27;4.70;;;20.10;99.90;;;;;;5049719;28;20393;-71
2023/08/16 03:04:32;;;;;;;9.50;4.60;;;20.10;99.90;;;;;;5050234;28;20387;-71
2023/08/16 03:06:58;;;;;;;8.83;4.20;;;20.10;99.90;;;;;;5049335;28;20492;-71
2023/08/16 03:09:23;;;;;;;8.97;4.20;;;20.10;99.90;;;;;;5049395;28;20390;-71
2023/08/16 03:11:49;;;;;;;10.30;4.23;;;20.10;99.90;;;;;;5049333;28;20405;-71
2023/08/16 03:14:15;;;;;;;8.55;4.10;;;20.10;99.90;;;;;;5049508;28;20393;-71
2023/08/16 03:16:41;;;;;;;11.30;4.72;;;20.10;99.90;;;;;;5049193;28;20396;-71
2023/08/16 03:19:06;;;;;;;8.83;4.40;;;20.10;99.90;;;;;;5048662;28;20408;-71
2023/08/16 03:21:34;;;;;;;8.73;3.93;;;20.00;99.90;;;;;;5050284;28;20397;-71
2023/08/16 03:24:00;;;;;;;7.32;3.30;;;20.00;99.90;;;;;;5045477;28;20407;-71
2023/08/16 03:26:25;;;;;;;11.87;4.67;;;20.10;99.90;;;;;;5029302;28;20422;-71
2023/08/16 03:28:51;;;;;;;9.90;4.00;;;20.10;99.90;;;;;;5029654;28;20398;-71
2023/08/16 03:31:17;;;;;;;9.43;3.57;;;20.10;98.70;;;;;;5037664;28;20417;-71
2023/08/16 03:33:43;;;;;;;8.80;3.55;;;20.10;99.90;;;;;;5049068;28;20385;-71
2023/08/16 03:36:08;;;;;;;8.70;4.10;;;20.10;99.90;;;;;;5049125;28;20837;-71
2023/08/16 03:38:34;;;;;;;8.33;3.97;;;20.10;99.90;;;;;;5049878;28;20389;-71
2023/08/16 03:40:59;;;;;;;7.65;3.80;;;20.10;99.90;;;;;;5049635;28;20458;-71
2023/08/16 03:43:28;;;;;;;10.70;3.67;;;20.00;99.90;;;;;;5049221;28;20389;-72
2023/08/16 03:45:54;;;;;;;8.57;4.22;;;20.10;99.90;;;;;;5048788;28;20805;-72
2023/08/16 03:48:20;;;;;;;9.00;4.20;;;20.10;99.90;;;;;;5048718;28;20488;-72
2023/08/16 03:50:45;;;;;;;8.90;4.00;;;20.10;99.90;;;;;;5048785;28;20839;-72
2023/08/16 03:53:11;;;;;;;9.07;4.30;;;20.00;99.90;;;;;;5048122;28;20397;-72
2023/08/16 03:55:37;;;;;;;8.55;4.13;;;19.90;99.90;;;;;;5048430;28;20385;-72
2023/08/16 03:58:02;;;;;;;8.80;4.30;;;19.80;99.90;;;;;;5049466;28;20390;-69
2023/08/16 04:00:28;;;;;;;8.97;4.67;;;19.70;99.90;;;;;;5048224;28;20407;-69
2023/08/16 04:02:53;;;;;;;8.40;4.50;;;19.60;99.90;;;;;;5048633;28;20389;-69
2023/08/16 04:05:21;;;;;;;9.43;4.22;;;19.40;99.90;;;;;;5048584;28;20466;-69
2023/08/16 04:07:47;;;;;;;10.43;4.60;;;19.50;99.90;;;;;;5048444;28;21095;-69
2023/08/16 04:10:12;;;;;;;9.02;4.10;;;19.60;99.90;;;;;;5048865;28;20443;-71
2023/08/16 04:12:38;;;;;;;8.50;4.10;;;19.70;99.90;;;;;;5048607;28;20412;-71
2023/08/16 04:15:04;;;;;;;8.63;4.13;;;19.70;99.90;;;;;;5048882;28;20385;-71
2023/08/16 04:17:30;;;;;;;11.10;5.10;;;19.80;99.90;;;;;;5048649;28;20738;-70
2023/08/16 04:19:56;;;;;;;9.77;4.40;;;19.90;99.90;;;;;;5048548;28;20396;-71
2023/08/16 04:22:21;;;;;;;8.40;3.88;;;20.00;99.90;;;;;;5048420;28;20413;-71
2023/08/16 04:24:47;;;;;;;9.40;4.00;;;20.00;99.90;;;;;;5048291;28;20771;-71
2023/08/16 04:27:12;;;;;;;8.32;4.05;;;20.10;99.90;;;;;;5047754;28;20417;-70
2023/08/16 04:29:38;;;;;;;8.63;3.80;;;20.10;99.90;;;;;;5048092;28;20767;-70
2023/08/16 04:32:03;;;;;;;10.65;4.25;;;20.20;99.90;;;;;;5048805;28;20454;-71
2023/08/16 04:34:29;;;;;;;10.40;4.67;;;20.20;99.90;;;;;;5048551;28;20405;-71
2023/08/16 04:36:54;;;;;;;9.13;4.07;;;20.30;99.90;;;;;;5045970;28;20816;-71
2023/08/16 04:39:20;;;;;;;10.00;4.30;;;20.30;99.90;;;;;;5048389;28;20390;-71
2023/08/16 04:41:45;;;;;;;8.27;4.10;;;20.50;99.90;;;;;;5047933;28;20416;-71
2023/08/16 04:44:11;;;;;;;9.90;4.20;;;20.60;99.90;;;;;;5048384;28;20423;-73
2023/08/16 04:46:36;;;;;;;10.57;4.00;;;20.60;93.10;;;;;;5048280;28;20409;-72
2023/08/16 04:49:02;;;;;;;8.63;3.60;;;20.60;53.40;;;;;;5048825;28;20385;-71
2023/08/16 04:51:28;;;;;;;12.35;4.38;;;20.50;84.80;;;;;;5047932;28;20389;-70
2023/08/16 04:53:53;;;;;;;8.35;3.58;;;20.40;99.90;;;;;;5048454;28;20400;-70
2023/08/16 04:56:19;;;;;;;9.38;3.90;;;20.40;99.90;;;;;;5047851;28;20396;-71
2023/08/16 04:58:44;;;;;;;7.72;3.83;;;20.60;99.90;;;;;;5048069;28;20457;-71
2023/08/16 05:01:10;;;;;;;9.48;3.90;;;20.90;99.90;;;;;;5048166;28;20502;-71
2023/08/16 05:03:35;;;;;;;8.15;3.60;;;21.50;99.90;;;;;;5048587;28;20397;-73
2023/08/16 05:06:03;;;;;;;11.82;3.45;;;22.30;1.00;;;;;;5052272;28;20452;-71
2023/08/16 05:08:29;;;;;;;9.27;4.10;;;22.70;1.00;;;;;;5051925;28;20850;-71
2023/08/16 05:10:56;;;;;;;8.02;3.25;;;23.10;99.90;;;;;;5051785;28;20409;-71
2023/08/16 05:13:21;;;;;;;8.20;3.70;;;22.70;99.90;;;;;;5051784;28;20404;-71
2023/08/16 05:15:47;;;;;;;8.02;3.65;;;22.10;1.00;;;;;;5051842;28;20727;-71
2023/08/16 05:18:12;;;;;;;8.35;3.25;;;21.80;1.00;;;;;;5046257;28;20468;-71
2023/08/16 05:20:38;;;;;;;8.10;4.00;;;21.80;1.00;;;;;;5039295;28;20481;-71
2023/08/16 05:23:04;;;;;;;7.50;3.23;;;21.80;1.00;;;;;;5040741;28;20778;-72
2023/08/16 05:25:29;;;;;;;10.20;4.50;;;21.60;1.00;;;;;;5049162;28;20420;-72
2023/08/16 05:27:58;;;;;;;8.43;4.03;;;21.60;1.00;;;;;;5051435;28;20415;-72
2023/08/16 05:30:27;;;;;;;9.13;4.15;;;21.60;1.00;;;;;;5051479;28;20492;-71
2023/08/16 05:32:55;;;;;;;10.38;5.25;;;21.70;1.00;;;;;;5051807;28;20419;-71
2023/08/16 05:35:21;;;;;;;10.27;4.70;;;22.20;1.00;;;;;;5050366;28;20698;-72
2023/08/16 05:37:47;;;;;;;9.00;4.20;;;23.00;1.00;;;;;;5051863;28;20488;-70
2023/08/16 05:40:13;;;;;;;9.20;4.75;;;23.80;99.90;;;;;;5051058;28;20897;-69
2023/08/16 05:42:39;;;;;;;9.57;4.32;;;24.30;99.90;;;;;;5050796;28;20450;-71
2023/08/16 05:45:05;;;;;;;10.45;4.57;;;24.70;99.90;;;;;;5051767;28;20897;-72
2023/08/16 05:47:31;;;;;;;9.20;4.40;;;25.30;1.00;;;;;;5051704;28;20425;-72
2023/08/16 05:49:57;;;;;;;9.75;4.80;;;24.90;61.90;;;;;;5050977;28;20389;-72
2023/08/16 05:52:23;;;;;;;8.07;4.00;;;24.50;99.90;;;;;;5051622;28;20390;-70
2023/08/16 05:54:48;;;;;;;10.15;4.63;;;24.40;99.90;;;;;;5051097;28;20412;-70
2023/08/16 05:57:14;;;;;;;10.43;4.60;;;24.60;99.90;;;;;;5049658;28;20882;-72
2023/08/16 05:59:40;;;;;;;10.70;4.47;;;25.30;99.90;;;;;;5051542;28;20394;-72
2023/08/16 06:02:06;;;;;;;8.70;4.00;;;26.10;99.90;;;;;;5051354;28;20437;-72
2023/08/16 06:04:33;;;;;;;10.25;4.45;;;27.10;1.00;;;;;;5047598;28;20409;-72
2023/08/16 06:06:59;;;;;;;9.80;4.60;;;27.00;1.00;;;;;;5047828;28;20554;-75
2023/08/16 06:09:24;;;;;;;11.23;4.35;;;26.30;1.00;;;;;;5041743;28;21046;-74
2023/08/16 06:11:50;;;;;;;11.20;4.90;;;25.70;99.90;;;;;;5039126;28;20413;-75
2023/08/16 06:14:15;;;;;;;11.03;5.13;;;25.40;1.00;;;;;;5039025;28;20387;-75
2023/08/16 06:16:41;;;;;;;9.57;4.37;;;24.70;1.00;;;;;;5030966;28;20371;-75
2023/08/16 06:19:06;;;;;;;12.20;4.47;;;23.90;1.00;;;;;;5033117;28;20454;-75
2023/08/16 06:21:32;;;;;;;9.67;4.17;;;23.60;99.90;;;;;;5044463;28;20408;-75
2023/08/16 06:23:57;;;;;;;8.70;4.17;;;23.60;99.90;;;;;;5037849;28;20442;-75
2023/08/16 06:26:23;;;;;;;10.07;4.37;;;23.70;99.90;;;;;;5032794;28;20442;-75
2023/08/16 06:28:49;;;;;;;9.40;4.47;;;23.60;99.90;;;;;;5050077;28;20476;-75
2023/08/16 06:31:15;;;;;;;9.73;4.60;;;23.80;99.90;;;;;;5051473;28;20409;-75
2023/08/16 06:33:42;;;;;;;11.00;4.80;;;23.90;99.90;;;;;;5050448;28;20500;-73
2023/08/16 06:36:07;;;;;;;9.85;4.50;;;24.00;1.00;;;;;;5050723;28;20482;-73
2023/08/16 06:38:33;;;;;;;12.10;5.13;;;23.80;99.90;;;;;;5042514;28;20926;-73
2023/08/16 06:40:58;;;;;;;11.33;5.00;;;23.80;99.90;;;;;;5044319;28;20405;-73
2023/08/16 06:43:24;;;;;;;10.50;3.90;;;23.80;1.00;;;;;;5040985;28;20819;-75
2023/08/16 06:45:49;;;;;;;10.97;4.73;;;23.70;99.90;;;;;;5045782;28;20402;-75
2023/08/16 06:48:15;;;;;;;11.73;4.70;;;23.60;99.90;;;;;;5039508;28;20745;-75
2023/08/16 06:50:40;;;;;;;10.43;4.47;;;23.80;86.50;;;;;;5042881;28;20413;-75
2023/08/16 06:53:07;;;;;;;9.20;4.63;;;23.90;1.00;;;;;;5043447;28;20408;-76
2023/08/16 06:55:35;;;;;;;9.43;4.00;;;24.00;1.00;;;;;;5042238;28;20763;-73
2023/08/16 06:58:05;;;;;;;11.20;4.57;;;24.20;1.00;;;;;;5034145;28;20473;-73
2023/08/16 07:00:30;;;;;;;8.70;4.50;;;24.40;99.90;;;;;;5041872;28;20949;-74
2023/08/16 07:02:56;;;;;;;9.27;3.60;;;24.70;1.00;;;;;;5046807;28;20409;-76
2023/08/16 07:05:25;;;;;;;8.25;3.75;;;25.20;99.90;;;;;;5048731;28;20405;-75
2023/08/16 07:07:50;;;;;;;9.38;4.60;;;25.90;1.00;;;;;;5038838;28;20446;-77
2023/08/16 07:10:16;;;;;;;9.03;4.70;;;26.00;99.90;;;;;;5031438;28;20411;-76
2023/08/16 07:12:44;;;;;;;9.52;4.15;;;26.10;1.00;;;;;;5040837;28;20403;-76
2023/08/16 07:15:11;;;;;;;11.18;4.25;;;26.30;99.90;;;;;;5031058;28;20947;-76
2023/08/16 07:17:36;;;;;;;8.82;4.30;;;26.70;99.90;;;;;;5032352;28;20399;-75
2023/08/16 07:20:02;;;;;;;13.87;4.47;;;27.00;1.00;;;;;;5044101;28;20862;-75
2023/08/16 07:22:28;;;;;;;8.63;4.15;;;27.10;1.00;;;;;;5030242;28;20391;-76
2023/08/16 07:24:54;;;;;;;9.52;4.20;;;27.10;1.00;;;;;;5037767;28;20385;-76
2023/08/16 07:27:20;;;;;;;8.45;3.60;;;27.20;99.90;;;;;;5028698;28;20419;-76
2023/08/16 07:29:46;;;;;;;12.38;3.97;;;27.20;1.00;;;;;;5036844;28;20480;-76
2023/08/16 07:32:12;;;;;;;8.80;3.70;;;27.30;99.90;;;;;;5035164;28;20405;-76
2023/08/16 07:34:38;;;;;;;9.93;4.10;;;27.10;99.90;;;;;;5035122;28;21113;-76
2023/08/16 07:37:03;;;;;;;9.20;3.72;;;27.20;99.90;;;;;;5035925;28;20393;-76
2023/08/16 07:39:31;;;;;;;8.95;4.30;;;27.20;99.90;;;;;;5041611;28;20440;-76
2023/08/16 07:41:56;;;;;;;9.43;4.30;;;27.40;99.90;;;;;;5039765;28;20392;-76
2023/08/16 07:44:22;;;;;;;10.75;4.68;;;27.90;99.90;;;;;;5037859;28;20405;-76
2023/08/16 07:46:47;;;;;;;9.45;4.78;;;28.70;99.90;;;;;;5046203;28;20425;-74
2023/08/16 07:49:13;;;;;;;10.30;4.30;;;30.10;1.00;;;;;;5031612;28;20816;-73
2023/08/16 07:51:39;;;;;;;8.93;4.30;;;31.30;1.00;;;;;;5032636;28;20396;-76
2023/08/16 07:54:04;;;;;;;9.50;3.70;;;32.40;1.00;;;;;;5049716;28;21305;-76
2023/08/16 07:56:31;;;;;;;8.73;3.95;;;33.20;1.00;;;;;;5047595;28;20436;-76
2023/08/16 07:58:56;;;;;;;11.45;4.60;;;33.60;1.00;;;;;;5032769;28;20922;-76
2023/08/16 08:01:22;;;;;;;10.43;4.00;;;32.70;99.90;;;;;;5037638;28;20419;-76
2023/08/16 08:03:47;;;;;;;9.47;4.30;;;32.50;99.90;;;;;;5040195;28;20405;-76
2023/08/16 08:06:13;;;;;;;9.43;4.30;;;33.00;1.00;;;;;;5038198;28;20419;-76
2023/08/16 08:08:38;;;;;;;8.45;4.30;;;33.80;1.00;;;;;;5033307;28;20452;-77
2023/08/16 08:11:07;;;;;;;7.70;3.50;;;34.40;1.00;;;;;;5041019;28;20408;-73
2023/08/16 08:13:32;;;;;;;9.55;3.70;;;35.30;1.00;;;;;;5034157;28;20399;-74
2023/08/16 08:16:00;;;;;;;9.20;4.40;;;36.20;1.00;;;;;;5034389;28;20492;-74
2023/08/16 08:18:25;;;;;;;8.48;4.00;;;36.30;1.00;;;;;;5035711;28;20464;-74
2023/08/16 08:20:51;;;;;;;10.03;4.60;;;36.50;1.00;;;;;;5038888;28;20821;-73
2023/08/16 08:23:16;;;;;;;8.32;4.00;;;36.50;1.00;;;;;;5036597;28;20428;-73
2023/08/16 08:25:44;;;;;;;9.00;3.90;;;36.70;1.00;;;;;;5048109;28;20405;-74
2023/08/16 08:28:10;;;;;;;9.35;4.20;;;36.90;1.00;;;;;;5048185;28;20396;-74
2023/08/16 08:30:36;;;;;;;9.10;4.20;;;36.90;1.00;;;;;;5047855;28;20413;-73
2023/08/16 08:33:01;;;;;;;8.55;4.13;;;36.40;1.00;;;;;;5048256;28;20870;-74
2023/08/16 08:35:27;;;;;;;12.37;3.93;;;36.30;1.00;;;;;;5044844;28;21170;-73
2023/08/16 08:37:54;;;;;;;12.70;3.70;;;37.10;1.00;;;;;;5037836;28;20418;-73
2023/08/16 08:40:20;;;;;;;9.60;4.30;;;37.50;1.00;;;;;;5041707;28;20453;-73
2023/08/16 08:42:46;;;;;;;9.68;4.13;;;37.30;1.00;;;;;;5044203;28;20405;-74
2023/08/16 08:45:14;;;;;;;8.55;3.50;;;38.00;1.00;;;;;;5044840;28;20384;-74
2023/08/16 08:47:40;;;;;;;10.90;4.15;;;38.10;1.00;;;;;;5038064;28;20467;-74
2023/08/16 08:50:07;;;;;;;8.50;4.10;;;37.90;1.00;;;;;;5047363;28;20450;-74
2023/08/16 08:52:33;;;;;;;9.00;4.10;;;38.10;1.00;;;;;;5049059;28;20390;-74
2023/08/16 08:54:58;;;;;;;8.37;4.07;;;38.30;1.00;;;;;;5045274;28;20386;-76
2023/08/16 08:57:27;;;;;;;9.15;4.15;;;38.60;1.00;;;;;;5048249;28;20846;-74
2023/08/16 08:59:54;;;;;;;8.73;4.05;;;39.10;1.00;;;;;;5036756;28;20401;-74
2023/08/16 09:02:22;;;;;;;9.25;4.25;;;39.60;1.00;;;;;;5047065;28;20394;-74
2023/08/16 09:04:50;;;;;;;8.90;4.50;;;39.90;1.00;;;;;;5046561;28;20409;-74
2023/08/16 09:07:17;;;;;;;9.77;4.43;;;38.60;99.90;;;;;;5034751;28;20510;-74
2023/08/16 09:09:44;;;;;;;9.90;4.20;;;37.00;99.90;;;;;;5036966;28;20398;-74
2023/08/16 09:12:13;;;;;;;8.90;4.88;;;35.80;99.90;;;;;;5047321;28;20404;-76
2023/08/16 09:14:38;;;;;;;8.75;4.15;;;34.70;99.90;;;;;;5041773;28;20401;-76
2023/08/16 09:17:04;;;;;;;9.30;4.20;;;34.00;99.90;;;;;;5035154;28;21171;-74
2023/08/16 09:19:30;;;;;;;8.50;4.20;;;33.40;99.90;;;;;;5037010;28;20979;-74
2023/08/16 09:21:56;;;;;;;9.37;4.20;;;32.80;99.90;;;;;;5034144;28;20511;-74
2023/08/16 09:24:26;;;;;;;9.48;4.57;;;33.20;99.90;;;;;;5030337;28;20435;-74
2023/08/16 09:26:52;;;;;;;8.83;4.90;;;34.40;1.00;;;;;;5037770;28;20508;-72
2023/08/16 09:29:18;;;;;;;8.60;4.60;;;35.90;1.00;;;;;;5046842;28;20500;-72
2023/08/16 09:31:46;;;;;;;11.57;4.90;;;;;;;;;;5029990;28;20915;-73
2023/08/16 09:34:13;;;;;;;9.25;4.70;;;37.80;99.90;;;;;;5042725;28;20465;-73
2023/08/16 09:36:42;;;;;;;9.32;4.40;;;39.10;99.90;;;;;;5032773;28;20397;-73
2023/08/16 09:39:09;;;;;;;9.98;4.20;;;39.90;99.90;;;;;;5045244;28;20897;-73
2023/08/16 09:41:35;;;;;;;9.40;4.40;;;39.60;99.90;;;;;;5047432;28;20403;-73
2023/08/16 09:44:08;;;;;;;8.40;4.30;;;39.20;99.90;;;;;;5047294;28;20385;-73
2023/08/16 09:46:34;;;;;;;8.38;4.60;;;39.80;99.90;;;;;;5047167;28;20433;-73
2023/08/16 09:49:07;;;;;;;8.63;4.20;;;40.70;99.90;;;;;;5045991;28;20382;-71
2023/08/16 09:51:35;;;;;;;9.48;4.40;;;41.00;99.90;;;;;;5029895;28;20888;-72
2023/08/16 09:54:03;;;;;;;10.35;4.20;;;40.40;99.90;;;;;;5043164;28;20410;-73
2023/08/16 09:56:32;;;;;;;8.55;4.20;;;39.00;99.90;;;;;;5038533;28;20385;-71
2023/08/16 09:58:59;;;;;;;8.90;4.38;;;38.00;99.90;;;;;;5050374;28;20404;-72
2023/08/16 10:01:25;;;;;;;9.25;4.65;;;36.60;99.90;;;;;;5049883;28;20400;-72
2023/08/16 10:03:54;;;;;;;8.50;4.70;;;35.70;99.90;;;;;;5050632;28;20394;-72
2023/08/16 10:06:23;;;;;;;9.20;4.30;;;35.30;99.90;;;;;;5050737;28;20945;-72
2023/08/16 10:08:52;;;;;;;10.18;4.53;;;35.10;99.90;;;;;;5050104;28;20386;-72
2023/08/16 10:11:18;;;;;;;10.75;4.30;;;35.10;99.90;;;;;;5050056;28;20409;-71
2023/08/16 10:13:45;;;;;;;8.73;4.47;;;35.40;99.90;;;;;;5050221;28;20457;-72
2023/08/16 10:16:15;;;;;;;10.88;4.25;;;35.20;99.90;;;;;;5049979;28;20417;-71
2023/08/16 10:18:46;;;;;;;8.45;4.30;;;35.30;99.90;;;;;;5042807;28;20460;-72
2023/08/16 10:21:16;;;;;;;11.93;4.93;;;34.90;99.90;;;;;;5042036;28;20409;-71
2023/08/16 10:23:42;;;;;;;9.52;4.72;;;34.40;99.90;;;;;;5049776;28;20393;-71
2023/08/16 10:26:22;;;;;;;8.90;4.50;;;34.10;99.90;;;;;;5049794;28;20466;-71
2023/08/16 10:28:51;;;;;;;12.38;4.50;;;33.50;99.90;;;;;;5049850;28;20396;-71
2023/08/16 10:31:21;;;;;;;8.70;4.50;;;33.70;99.90;;;;;;5049973;28;20402;-72
2023/08/16 10:33:50;;;;;;;10.48;3.90;;;34.50;99.90;;;;;;5049998;28;20393;-71
2023/08/16 10:36:17;;;;;;;10.95;4.90;;;35.20;99.90;;;;;;5049630;28;20858;-71
2023/08/16 10:38:42;;;;;;;9.93;4.40;;;35.70;99.90;;;;;;5049482;28;20407;-72
2023/08/16 10:41:12;;;;;;;11.00;4.57;;;36.20;99.90;;;;;;5049652;28;20765;-72
2023/08/16 10:43:38;;;;;;;10.57;4.70;;;36.30;99.90;;;;;;5041413;28;20847;-71
2023/08/16 10:46:04;;;;;;;10.00;4.80;;;36.00;99.90;;;;;;5030512;28;20526;-71
2023/08/16 10:48:36;;;;;;;9.57;4.60;;;35.70;99.90;;;;;;5046103;28;20378;-71
2023/08/16 10:51:07;;;;;;;13.05;5.18;;;35.20;99.90;;;;;;5050631;28;20436;-71
2023/08/16 10:53:34;;;;;;;9.68;4.72;;;35.00;99.90;;;;;;5050886;28;20476;-71
2023/08/16 10:56:07;;;;;;;9.90;4.82;;;35.00;99.90;;;;;;5051414;28;20401;-71
2023/08/16 10:58:45;;;;;;;9.95;4.70;;;34.70;99.90;;;;;;5050584;28;20394;-71
2023/08/16 11:01:11;;;;;;;8.67;4.90;;;34.40;99.90;;;;;;5049619;28;20869;-71
2023/08/16 11:03:39;;;;;;;10.45;5.72;;;34.20;99.90;;;;;;5049016;28;20394;-72
2023/08/16 11:06:09;;;;;;;10.15;5.00;;;34.30;99.90;;;;;;5049322;28;20408;-71
2023/08/16 11:08:34;;;;;;;9.20;4.88;;;33.80;99.90;;;;;;5049731;28;20440;-71
2023/08/16 11:11:01;;;;;;;9.35;4.35;;;33.40;99.90;;;;;;5042188;28;20475;-72
2023/08/16 11:13:28;;;;;;;10.10;4.65;;;33.30;99.90;;;;;;5040163;28;20393;-70
2023/08/16 11:15:55;;;;;;;12.07;5.50;;;33.50;99.90;;;;;;5037568;28;20868;-70
2023/08/16 11:18:32;;;;;;;10.10;4.73;;;33.30;99.90;;;;;;5029109;28;20407;-72
2023/08/16 11:21:01;;;;;;;10.30;5.07;;;33.40;99.90;;;;;;5028235;28;20398;-72
2023/08/16 11:23:37;;;;;;;11.23;5.40;;;33.50;99.90;;;;;;5029515;28;20920;-73
2023/08/16 11:26:04;;;;;;;10.38;4.90;;;33.60;99.90;;;;;;5039431;28;20401;-73
2023/08/16 11:28:31;;;;;;;8.43;4.40;;;34.00;99.90;;;;;;5048945;28;20393;-73
2023/08/16 11:31:02;;;;;;;9.30;4.82;;;34.30;99.90;;;;;;5049700;28;20418;-73
2023/08/16 11:33:35;;;;;;;12.13;5.00;;;34.20;99.90;;;;;;5034448;28;20399;-73
2023/08/16 11:36:03;;;;;;;10.57;5.67;;;34.20;99.90;;;;;;5042115;28;20529;-73
2023/08/16 11:38:29;;;;;;;10.82;5.20;;;34.20;99.90;;;;;;5048816;28;20384;-73
2023/08/16 11:40:55;;;;;;;10.63;5.40;;;34.10;99.90;;;;;;5043374;28;20884;-73
2023/08/16 11:43:32;;;;;;;12.15;5.15;;;34.10;99.90;;;;;;5029139;28;20411;-73
2023/08/16 11:45:59;;;;;;;10.85;5.30;;;34.00;99.90;;;;;;5038787;28;20484;-73
2023/08/16 11:48:25;;;;;;;8.52;4.43;;;33.90;99.90;;;;;;5048492;28;20468;-73
2023/08/16 11:50:51;;;;;;;10.32;5.07;;;33.90;99.90;;;;;;5030261;28;20400;-73
2023/08/16 11:53:19;;;;;;;9.05;4.55;;;34.00;99.90;;;;;;5040921;28;20408;-73
2023/08/16 11:56:01;;;;;;;9.57;4.77;;;34.10;99.90;;;;;;5048542;28;20389;-73
2023/08/16 11:58:27;;;;;;;10.40;4.57;;;34.10;99.90;;;;;;5047066;28;20492;-73
2023/08/16 12:00:54;;;;;;;9.80;4.60;;;34.10;99.90;;;;;;5048281;28;20487;-74
2023/08/16 12:03:19;;;;;;;9.07;4.32;;;33.80;99.90;;;;;;5048150;28;20396;-73
2023/08/16 12:05:48;;;;;;;8.20;4.40;;;33.70;99.90;;;;;;5047647;28;20397;-73
2023/08/16 12:08:19;;;;;;;9.80;4.70;;;33.60;99.90;;;;;;5048475;28;20847;-73
2023/08/16 12:10:53;;;;;;;10.32;4.80;;;33.70;99.90;;;;;;5048629;28;20436;-73
2023/08/16 12:13:19;;;;;;;8.38;4.35;;;33.90;99.90;;;;;;5047823;28;20408;-73
2023/08/16 12:15:46;;;;;;;10.50;4.88;;;33.80;99.90;;;;;;5048462;28;20401;-73
2023/08/16 12:18:14;;;;;;;10.77;4.82;;;33.80;99.90;;;;;;5045009;28;20452;-73
2023/08/16 12:20:40;;;;;;;9.50;4.40;;;34.00;99.90;;;;;;5028229;28;20395;-73
2023/08/16 12:23:07;;;;;;;10.27;4.67;;;34.10;99.90;;;;;;5033754;28;20874;-73
2023/08/16 12:25:34;;;;;;;11.13;4.95;;;33.80;99.90;;;;;;5036791;28;20442;-73
2023/08/16 12:27:59;;;;;;;10.68;4.78;;;33.90;99.90;;;;;;5042261;28;20466;-73
2023/08/16 12:30:25;;;;;;;8.88;4.32;;;33.90;99.90;;;;;;5044263;28;20450;-73
2023/08/16 12:32:51;;;;;;;9.15;4.57;;;33.90;99.90;;;;;;5042891;28;20763;-73
2023/08/16 12:35:17;;;;;;;10.85;4.32;;;34.00;99.90;;;;;;5047423;28;20381;-73
2023/08/16 12:37:42;;;;;;;9.23;4.70;;;34.30;99.90;;;;;;5046256;28;20897;-73
2023/08/16 12:40:09;;;;;;;11.33;4.77;;;34.30;99.90;;;;;;5047364;28;20389;-73
2023/08/16 12:42:35;;;;;;;9.90;4.80;;;34.30;99.90;;;;;;5048067;28;20900;-73